Time;durP1;ratioP1;P1;durP2;ratioP2;P2;SDS_P1;SDS_P2;PMS_P1;PMS_P2;Temp;Humidity;BMP_temperature;BMP_pressure;BME280_temperature;BME280_humidity;BME280_pressure;Samples;Min_cycle;Max_cycle;Signal;HPM_P1;HPM_P2
2022/04/23 00:01:49;;;;;;;16.88;10.98;;;13.30;99.90;;;;;;5041025;28;20032;-74
2022/04/23 00:04:15;;;;;;;14.82;10.43;;;13.30;99.90;;;;;;5059518;28;20036;-73
2022/04/23 00:06:43;;;;;;;13.93;10.52;;;13.30;99.90;;;;;;5057608;28;20477;-73
2022/04/23 00:09:09;;;;;;;15.63;10.80;;;13.20;99.90;;;;;;5057908;28;20479;-72
2022/04/23 00:11:35;;;;;;;12.50;9.77;;;13.20;99.90;;;;;;5057568;28;20037;-73
2022/04/23 00:14:01;;;;;;;15.43;10.05;;;13.10;99.90;;;;;;5058937;28;20053;-74
2022/04/23 00:16:27;;;;;;;11.90;9.15;;;13.10;99.90;;;;;;5059263;28;20035;-74
2022/04/23 00:18:53;;;;;;;12.65;9.77;;;13.00;99.90;;;;;;5059007;28;20017;-74
2022/04/23 00:21:19;;;;;;;15.20;9.05;;;12.90;99.90;;;;;;5057753;28;20048;-74
2022/04/23 00:23:47;;;;;;;11.38;9.27;;;12.90;99.90;;;;;;5059266;28;20092;-74
2022/04/23 00:26:13;;;;;;;12.07;10.10;;;12.80;99.90;;;;;;5043118;28;20456;-75
2022/04/23 00:28:39;;;;;;;14.77;10.45;;;12.80;99.90;;;;;;5058922;28;20044;-74
2022/04/23 00:31:05;;;;;;;12.60;10.05;;;12.80;99.90;;;;;;5044425;28;20029;-74
2022/04/23 00:33:34;;;;;;;12.68;10.35;;;12.70;99.90;;;;;;5063181;28;20100;-74
2022/04/23 00:35:59;;;;;;;12.38;9.88;;;12.60;99.90;;;;;;5061788;28;20048;-74
2022/04/23 00:38:25;;;;;;;14.18;10.00;;;12.60;99.90;;;;;;5060968;28;20040;-74
2022/04/23 00:40:51;;;;;;;12.95;9.70;;;12.50;99.90;;;;;;5061508;28;20029;-74
2022/04/23 00:43:27;;;;;;;12.50;9.38;;;12.50;99.90;;;;;;5060528;28;20032;-74
2022/04/23 00:45:53;;;;;;;15.57;10.68;;;12.40;99.90;;;;;;5046345;28;20039;-74
2022/04/23 00:48:18;;;;;;;13.80;9.02;;;12.30;99.90;;;;;;5070049;28;20056;-74
2022/04/23 00:50:44;;;;;;;14.68;10.43;;;12.30;99.90;;;;;;5056762;28;20024;-74
2022/04/23 00:53:11;;;;;;;13.25;9.98;;;12.20;99.90;;;;;;5038700;28;20017;-73
2022/04/23 00:55:37;;;;;;;12.88;9.30;;;12.20;99.90;;;;;;5038687;28;20032;-73
2022/04/23 00:58:03;;;;;;;14.32;10.32;;;12.20;99.90;;;;;;5056311;28;20025;-75
2022/04/23 01:00:29;;;;;;;15.95;10.73;;;12.10;99.90;;;;;;5056150;28;20035;-74
2022/04/23 01:02:55;;;;;;;12.90;9.80;;;12.10;99.90;;;;;;5056368;28;20437;-74
2022/04/23 01:05:24;;;;;;;14.13;10.35;;;12.00;99.90;;;;;;5056220;28;20025;-74
2022/04/23 01:07:51;;;;;;;12.68;10.15;;;11.90;99.90;;;;;;5055858;28;20036;-74
2022/04/23 01:10:17;;;;;;;14.65;10.48;;;11.90;99.90;;;;;;5056426;28;20021;-74
2022/04/23 01:12:45;;;;;;;14.32;9.55;;;11.80;99.90;;;;;;5056012;28;20052;-74
2022/04/23 01:15:13;;;;;;;16.73;10.60;;;11.80;99.90;;;;;;5056537;28;20071;-74
2022/04/23 01:17:40;;;;;;;13.95;11.02;;;11.70;99.90;;;;;;5056156;28;20032;-75
2022/04/23 01:20:14;;;;;;;16.10;10.32;;;11.60;99.90;;;;;;5056240;28;20036;-74
2022/04/23 01:22:41;;;;;;;12.52;11.02;;;11.60;99.90;;;;;;5037884;28;20074;-74
2022/04/23 01:25:10;;;;;;;14.80;11.88;;;11.50;99.90;;;;;;5056225;28;20445;-74
2022/04/23 01:27:37;;;;;;;14.45;10.63;;;11.50;99.90;;;;;;5055990;28;20025;-74
2022/04/23 01:30:04;;;;;;;15.02;10.68;;;11.40;99.90;;;;;;5056430;28;20020;-74
2022/04/23 01:32:30;;;;;;;15.55;11.32;;;11.30;99.90;;;;;;5055577;28;20072;-74
2022/04/23 01:34:55;;;;;;;15.43;12.15;;;11.30;99.90;;;;;;5055839;28;20021;-74
2022/04/23 01:37:21;;;;;;;16.60;11.75;;;11.30;99.90;;;;;;5055766;28;20020;-74
2022/04/23 01:39:47;;;;;;;15.75;11.20;;;11.20;99.90;;;;;;5055898;28;20044;-75
2022/04/23 01:42:13;;;;;;;15.15;11.00;;;11.20;99.90;;;;;;5038019;28;20061;-74
2022/04/23 01:44:39;;;;;;;14.63;11.02;;;11.10;99.90;;;;;;5056012;28;20094;-74
2022/04/23 01:47:05;;;;;;;14.35;11.40;;;11.10;99.90;;;;;;5055479;28;20033;-74
2022/04/23 01:49:31;;;;;;;14.73;11.73;;;11.00;99.90;;;;;;5056315;28;20025;-74
2022/04/23 01:51:56;;;;;;;16.40;11.40;;;11.00;99.90;;;;;;5057162;28;20103;-74
2022/04/23 01:54:22;;;;;;;15.25;11.48;;;11.00;99.90;;;;;;5039724;28;20033;-74
2022/04/23 01:56:48;;;;;;;14.05;11.05;;;11.00;99.90;;;;;;5056937;28;20083;-74
2022/04/23 01:59:13;;;;;;;15.13;10.93;;;11.00;99.90;;;;;;5057182;28;20029;-74
2022/04/23 02:01:40;;;;;;;17.00;11.45;;;10.90;99.90;;;;;;5062714;28;20124;-74
2022/04/23 02:04:06;;;;;;;16.83;11.77;;;10.90;99.90;;;;;;5056269;28;20021;-74
2022/04/23 02:06:33;;;;;;;14.80;11.60;;;10.80;99.90;;;;;;5055624;28;20025;-74
2022/04/23 02:09:00;;;;;;;15.48;11.60;;;10.70;99.90;;;;;;5055206;28;20021;-75
2022/04/23 02:11:25;;;;;;;16.02;11.80;;;10.70;99.90;;;;;;5055567;28;20086;-74
2022/04/23 02:13:51;;;;;;;16.83;11.52;;;10.70;99.90;;;;;;5055595;28;20055;-74
2022/04/23 02:16:17;;;;;;;15.38;11.00;;;10.60;99.90;;;;;;5054866;28;20389;-74
2022/04/23 02:18:42;;;;;;;16.33;12.23;;;10.50;99.90;;;;;;5055595;28;20020;-74
2022/04/23 02:21:08;;;;;;;17.60;11.98;;;10.50;99.90;;;;;;5054983;28;20059;-75
2022/04/23 02:23:33;;;;;;;19.38;11.98;;;10.40;99.90;;;;;;5054476;28;20035;-74
2022/04/23 02:25:59;;;;;;;17.40;12.02;;;10.40;99.90;;;;;;5036539;28;20423;-74
2022/04/23 02:28:25;;;;;;;14.48;11.25;;;10.30;99.90;;;;;;5055395;28;20514;-74
2022/04/23 02:30:50;;;;;;;16.85;11.70;;;10.30;99.90;;;;;;5055103;28;20029;-74
2022/04/23 02:33:16;;;;;;;15.65;11.60;;;10.20;99.90;;;;;;5055248;28;20028;-74
2022/04/23 02:35:44;;;;;;;17.50;11.23;;;10.30;99.90;;;;;;5054765;28;20052;-74
2022/04/23 02:38:10;;;;;;;17.48;12.20;;;10.20;99.90;;;;;;5054350;28;20071;-74
2022/04/23 02:40:36;;;;;;;16.33;11.80;;;10.20;99.90;;;;;;5054103;28;20024;-74
2022/04/23 02:43:03;;;;;;;18.85;12.77;;;10.20;99.90;;;;;;5054567;28;20039;-73
2022/04/23 02:45:28;;;;;;;17.60;11.90;;;10.20;99.90;;;;;;5054014;28;20020;-74
2022/04/23 02:47:57;;;;;;;18.88;12.77;;;10.20;99.90;;;;;;5054408;28;20593;-74
2022/04/23 02:50:38;;;;;;;19.17;12.50;;;10.10;99.90;;;;;;5054148;28;20124;-73
2022/04/23 02:53:05;;;;;;;19.10;12.87;;;10.10;99.90;;;;;;5055597;28;20037;-74
2022/04/23 02:55:31;;;;;;;18.77;12.45;;;10.00;99.90;;;;;;5055026;28;20835;-74
2022/04/23 02:58:05;;;;;;;19.75;13.00;;;10.00;99.90;;;;;;5055251;28;20051;-73
2022/04/23 03:00:31;;;;;;;20.02;11.95;;;10.00;99.90;;;;;;5055189;28;20360;-73
2022/04/23 03:02:57;;;;;;;17.13;11.88;;;10.00;99.90;;;;;;5054089;28;20020;-73
2022/04/23 03:05:22;;;;;;;18.45;13.00;;;9.90;99.90;;;;;;5054732;28;20101;-71
2022/04/23 03:07:48;;;;;;;15.52;12.10;;;9.90;99.90;;;;;;5053498;28;20036;-73
2022/04/23 03:10:16;;;;;;;17.65;12.00;;;9.90;99.90;;;;;;5056533;28;20021;-72
2022/04/23 03:12:42;;;;;;;16.75;12.05;;;9.80;99.90;;;;;;5057459;28;20068;-72
2022/04/23 03:15:10;;;;;;;18.13;13.00;;;9.80;99.90;;;;;;5036930;28;20157;-72
2022/04/23 03:17:36;;;;;;;20.50;12.35;;;9.80;99.90;;;;;;5053642;28;20021;-72
2022/04/23 03:20:04;;;;;;;19.05;12.93;;;9.80;99.90;;;;;;5053575;28;20029;-72
2022/04/23 03:22:29;;;;;;;17.50;12.00;;;9.80;99.90;;;;;;5053474;28;20052;-73
2022/04/23 03:24:55;;;;;;;19.40;12.52;;;9.80;99.90;;;;;;5053610;28;20083;-71
2022/04/23 03:27:21;;;;;;;16.75;12.25;;;9.80;99.90;;;;;;5036106;28;20060;-72
2022/04/23 03:29:46;;;;;;;17.88;12.57;;;9.70;99.90;;;;;;5053233;28;20021;-73
2022/04/23 03:32:11;;;;;;;16.25;11.35;;;9.70;99.90;;;;;;5035453;28;20025;-72
2022/04/23 03:34:38;;;;;;;20.35;12.40;;;9.60;99.90;;;;;;5053165;28;20060;-72
2022/04/23 03:37:05;;;;;;;18.58;12.93;;;9.60;99.90;;;;;;5035392;28;20548;-72
2022/04/23 03:39:34;;;;;;;17.33;12.40;;;9.60;99.90;;;;;;5053015;28;20029;-72
2022/04/23 03:42:01;;;;;;;16.50;11.80;;;9.50;99.90;;;;;;5053183;28;20035;-72
2022/04/23 03:44:29;;;;;;;18.02;12.30;;;9.50;99.90;;;;;;5053381;28;20025;-72
2022/04/23 03:46:56;;;;;;;16.52;12.00;;;9.50;99.90;;;;;;5053010;28;20025;-72
2022/04/23 03:49:23;;;;;;;17.83;12.60;;;9.40;99.90;;;;;;5053784;28;20021;-72
2022/04/23 03:51:49;;;;;;;17.50;12.60;;;9.30;99.90;;;;;;5053264;28;20021;-72
2022/04/23 03:54:15;;;;;;;16.13;12.27;;;9.30;99.90;;;;;;5053422;28;20032;-72
2022/04/23 03:56:40;;;;;;;17.85;12.02;;;9.30;99.90;;;;;;5053059;28;20532;-73
2022/04/23 03:59:07;;;;;;;17.83;12.70;;;9.20;99.90;;;;;;5053248;28;20033;-72
2022/04/23 04:01:33;;;;;;;15.07;10.98;;;9.20;99.90;;;;;;5053001;28;20025;-72
2022/04/23 04:04:00;;;;;;;17.85;11.73;;;9.20;99.90;;;;;;5035269;28;20418;-72
2022/04/23 04:06:26;;;;;;;18.08;10.77;;;9.10;99.90;;;;;;5053053;28;20127;-73
2022/04/23 04:08:53;;;;;;;18.02;11.70;;;9.10;99.90;;;;;;5054080;28;20032;-72
2022/04/23 04:11:19;;;;;;;18.25;11.05;;;9.00;99.90;;;;;;5053439;28;20027;-73
2022/04/23 04:13:44;;;;;;;17.25;11.77;;;9.00;99.90;;;;;;5054002;28;20530;-73
2022/04/23 04:16:10;;;;;;;19.83;11.45;;;9.00;99.90;;;;;;5053504;28;20025;-72
2022/04/23 04:18:36;;;;;;;19.45;11.80;;;9.00;99.90;;;;;;5053548;28;20025;-73
2022/04/23 04:21:02;;;;;;;19.35;11.13;;;8.90;99.90;;;;;;5054318;28;20033;-73
2022/04/23 04:23:27;;;;;;;16.25;11.18;;;8.90;99.90;;;;;;5057690;28;20131;-73
2022/04/23 04:25:53;;;;;;;20.02;11.32;;;8.90;99.90;;;;;;5058220;28;20071;-73
2022/04/23 04:28:20;;;;;;;15.90;11.45;;;8.90;99.90;;;;;;5057939;28;20049;-72
2022/04/23 04:33:30;;;;;;;18.10;12.13;;;8.80;99.90;;;;;;5058220;28;20032;-72
2022/04/23 04:35:56;;;;;;;16.42;10.55;;;8.80;99.90;;;;;;5059291;28;20130;-71
2022/04/23 04:38:21;;;;;;;17.60;11.00;;;8.80;99.90;;;;;;5073710;28;20029;-72
2022/04/23 04:40:47;;;;;;;15.38;11.40;;;8.80;99.90;;;;;;5069597;28;20082;-73
2022/04/23 04:43:12;;;;;;;15.52;10.57;;;8.80;99.90;;;;;;5038705;28;20070;-73
2022/04/23 04:45:38;;;;;;;14.52;11.15;;;8.80;99.90;;;;;;5056948;28;20017;-73
2022/04/23 04:48:05;;;;;;;15.70;11.30;;;8.90;99.90;;;;;;5055927;28;20033;-73
2022/04/23 04:50:31;;;;;;;21.90;12.55;;;8.80;99.90;;;;;;5056108;28;20017;-72
2022/04/23 04:52:57;;;;;;;14.13;10.40;;;8.80;99.90;;;;;;5056315;28;20044;-72
2022/04/23 04:55:23;;;;;;;17.25;10.73;;;8.80;99.90;;;;;;5055770;28;20385;-72
2022/04/23 04:57:49;;;;;;;13.30;10.65;;;8.80;99.90;;;;;;5055905;28;20108;-72
2022/04/23 05:00:16;;;;;;;15.15;10.30;;;8.70;99.90;;;;;;5055754;28;20025;-72
2022/04/23 05:02:42;;;;;;;19.95;10.20;;;8.70;99.90;;;;;;5055693;28;20035;-73
2022/04/23 05:05:08;;;;;;;17.00;10.65;;;8.70;99.90;;;;;;5038202;28;20033;-73
2022/04/23 05:07:33;;;;;;;13.07;9.98;;;8.70;99.90;;;;;;5056594;28;20036;-74
2022/04/23 05:10:03;;;;;;;17.30;11.05;;;8.70;99.90;;;;;;5056913;28;20021;-72
2022/04/23 05:12:29;;;;;;;14.73;10.85;;;8.70;99.90;;;;;;5056647;28;20057;-72
2022/04/23 05:14:54;;;;;;;18.88;10.60;;;8.70;99.90;;;;;;5056109;28;20045;-73
2022/04/23 05:17:20;;;;;;;15.93;10.75;;;8.80;99.90;;;;;;5055618;28;20116;-72
2022/04/23 05:19:45;;;;;;;18.45;10.32;;;8.70;99.90;;;;;;5055176;28;20033;-72
2022/04/23 05:22:11;;;;;;;19.25;10.65;;;8.80;99.90;;;;;;5037616;28;20214;-73
2022/04/23 05:24:36;;;;;;;17.33;12.07;;;8.80;99.90;;;;;;5055854;28;20029;-73
2022/04/23 05:27:02;;;;;;;16.13;10.25;;;8.90;99.90;;;;;;5056031;28;20478;-73
2022/04/23 05:29:28;;;;;;;20.98;10.70;;;8.90;99.90;;;;;;5055306;28;20025;-73
2022/04/23 05:31:53;;;;;;;18.73;10.95;;;8.90;99.90;;;;;;5055677;28;20470;-73
2022/04/23 05:34:19;;;;;;;12.90;9.55;;;8.90;99.90;;;;;;5057512;28;20043;-73
2022/04/23 05:36:44;;;;;;;15.55;10.32;;;8.90;99.90;;;;;;5060013;28;20032;-74
2022/04/23 05:39:11;;;;;;;14.35;11.00;;;9.00;99.90;;;;;;5056034;28;20402;-73
2022/04/23 05:41:36;;;;;;;14.27;9.95;;;9.00;99.90;;;;;;5037876;28;20452;-73
2022/04/23 05:44:02;;;;;;;16.20;10.65;;;9.10;99.90;;;;;;5055751;28;20029;-73
2022/04/23 05:46:28;;;;;;;18.10;10.90;;;9.10;99.90;;;;;;5055642;28;20044;-73
2022/04/23 05:48:55;;;;;;;13.13;9.98;;;9.20;99.90;;;;;;5037434;28;20033;-73
2022/04/23 05:51:20;;;;;;;14.65;9.90;;;9.30;99.90;;;;;;5037425;28;20059;-73
2022/04/23 05:53:46;;;;;;;14.52;10.18;;;9.30;99.90;;;;;;5055041;28;20036;-73
2022/04/23 05:56:12;;;;;;;16.67;10.70;;;9.40;99.90;;;;;;5055403;28;20029;-72
2022/04/23 05:58:37;;;;;;;12.20;9.85;;;9.50;99.90;;;;;;5055146;28;20029;-72
2022/04/23 06:01:04;;;;;;;17.48;10.15;;;9.60;99.90;;;;;;5054929;28;20461;-73
2022/04/23 06:03:29;;;;;;;15.23;10.65;;;9.70;99.90;;;;;;5054895;28;20048;-73
2022/04/23 06:05:55;;;;;;;15.88;10.38;;;9.70;99.90;;;;;;5037614;28;20033;-73
2022/04/23 06:08:20;;;;;;;13.85;10.15;;;9.70;99.90;;;;;;5054639;28;20426;-73
2022/04/23 06:10:46;;;;;;;15.48;10.10;;;9.80;99.90;;;;;;5054856;28;20056;-72
2022/04/23 06:13:12;;;;;;;17.83;10.77;;;9.80;99.90;;;;;;5054639;28;20029;-73
2022/04/23 06:15:37;;;;;;;15.88;11.13;;;9.90;99.90;;;;;;5054495;28;20082;-73
2022/04/23 06:18:03;;;;;;;12.52;9.95;;;10.00;99.90;;;;;;5054477;28;20101;-74
2022/04/23 06:20:29;;;;;;;15.68;10.88;;;10.10;99.90;;;;;;5054739;28;20082;-74
2022/04/23 06:22:54;;;;;;;14.60;10.35;;;10.20;99.90;;;;;;5054373;28;20467;-75
2022/04/23 06:25:20;;;;;;;14.48;10.57;;;10.30;99.90;;;;;;5054272;28;20029;-74
2022/04/23 06:27:45;;;;;;;15.85;10.88;;;10.30;99.90;;;;;;5054156;28;20048;-74
2022/04/23 06:30:11;;;;;;;16.42;11.23;;;10.40;99.90;;;;;;5036530;28;20098;-74
2022/04/23 06:32:40;;;;;;;16.48;11.77;;;10.40;99.90;;;;;;5054608;28;20032;-75
2022/04/23 06:35:07;;;;;;;15.27;11.23;;;10.40;99.90;;;;;;5054366;28;20025;-74
2022/04/23 06:37:38;;;;;;;17.13;12.35;;;10.50;99.90;;;;;;5037002;28;20368;-75
2022/04/23 06:40:04;;;;;;;16.17;11.43;;;10.60;99.90;;;;;;5054562;28;20495;-75
2022/04/23 06:42:29;;;;;;;20.40;12.07;;;10.60;99.90;;;;;;5054635;28;20083;-74
2022/04/23 06:44:55;;;;;;;16.40;10.52;;;10.70;99.90;;;;;;5055462;28;20024;-74
2022/04/23 06:47:21;;;;;;;16.30;11.45;;;10.80;99.90;;;;;;5059025;28;20498;-75
2022/04/23 06:49:46;;;;;;;18.67;11.63;;;11.00;99.90;;;;;;5054681;28;20036;-75
2022/04/23 06:52:12;;;;;;;17.95;11.10;;;11.00;99.90;;;;;;5037140;28;20546;-75
2022/04/23 06:54:37;;;;;;;17.08;11.70;;;11.10;99.90;;;;;;5036922;28;20048;-75
2022/04/23 06:57:03;;;;;;;17.52;11.57;;;11.30;99.90;;;;;;5054665;28;20075;-75
2022/04/23 06:59:29;;;;;;;15.07;11.18;;;11.30;99.90;;;;;;5055001;28;20024;-75
2022/04/23 07:01:55;;;;;;;15.27;10.93;;;11.40;99.90;;;;;;5054624;28;20025;-74
2022/04/23 07:04:20;;;;;;;19.33;13.00;;;11.40;99.90;;;;;;5057212;28;20032;-75
2022/04/23 07:06:46;;;;;;;17.70;12.75;;;11.40;99.90;;;;;;5038472;28;20029;-73
2022/04/23 07:09:11;;;;;;;21.02;12.85;;;11.50;99.90;;;;;;5054395;28;20067;-74
2022/04/23 07:11:38;;;;;;;17.38;12.02;;;11.60;99.90;;;;;;5055089;28;20020;-74
2022/04/23 07:14:03;;;;;;;19.75;12.27;;;11.50;99.90;;;;;;5054868;28;20041;-73
2022/04/23 07:16:29;;;;;;;18.40;12.90;;;11.60;99.90;;;;;;5055234;28;20027;-74
2022/04/23 07:18:54;;;;;;;20.50;12.38;;;11.70;99.90;;;;;;5036883;28;20025;-74
2022/04/23 07:21:21;;;;;;;17.67;13.20;;;11.80;99.90;;;;;;5054976;28;20100;-73
2022/04/23 07:26:31;;;;;;;19.77;13.02;;;12.00;99.90;;;;;;5054569;28;20040;-75
2022/04/23 07:28:57;;;;;;;19.67;13.13;;;12.20;99.90;;;;;;5035891;28;20021;-75
2022/04/23 07:31:24;;;;;;;19.77;13.90;;;12.30;99.90;;;;;;5054011;28;20017;-76
2022/04/23 07:39:18;;;;;;;17.48;12.80;;;12.50;99.90;;;;;;5053399;28;20036;-74
2022/04/23 07:41:46;;;;;;;22.77;14.10;;;12.70;99.90;;;;;;5053099;28;20390;-75
2022/04/23 07:44:11;;;;;;;18.42;13.20;;;12.80;99.90;;;;;;5053207;28;20044;-75
2022/04/23 07:46:39;;;;;;;17.58;13.23;;;12.90;99.90;;;;;;5053071;28;20025;-74
2022/04/23 07:49:04;;;;;;;16.23;12.95;;;13.00;99.90;;;;;;5053637;28;20021;-75
2022/04/23 07:51:30;;;;;;;20.25;13.00;;;13.10;99.90;;;;;;5053249;28;20111;-75
2022/04/23 07:53:55;;;;;;;16.50;13.05;;;13.20;99.90;;;;;;5054037;28;20029;-75
2022/04/23 07:56:22;;;;;;;18.73;13.55;;;13.30;99.90;;;;;;5050262;28;20033;-74
2022/04/23 07:58:47;;;;;;;15.40;12.68;;;13.40;99.90;;;;;;5033008;28;20029;-75
2022/04/23 08:01:13;;;;;;;17.75;12.88;;;13.60;99.90;;;;;;5057413;28;20444;-75
2022/04/23 08:03:39;;;;;;;17.38;12.55;;;13.80;99.90;;;;;;5057863;28;20104;-74
2022/04/23 08:06:04;;;;;;;19.65;12.95;;;13.90;99.90;;;;;;5039026;28;20029;-75
2022/04/23 08:08:30;;;;;;;18.95;12.25;;;14.00;99.90;;;;;;5057092;28;20029;-75
2022/04/23 08:11:13;;;;;;;16.63;12.00;;;14.10;99.90;;;;;;5060001;28;20025;-74
2022/04/23 08:13:38;;;;;;;15.85;11.48;;;14.20;99.90;;;;;;5029221;28;20430;-75
2022/04/23 08:16:05;;;;;;;19.27;11.35;;;14.20;99.90;;;;;;5057109;28;20087;-75
2022/04/23 08:18:30;;;;;;;14.38;10.68;;;14.30;99.90;;;;;;5056969;28;20031;-75
2022/04/23 08:20:56;;;;;;;14.18;10.35;;;14.40;99.90;;;;;;5056865;28;20406;-74
2022/04/23 08:23:23;;;;;;;13.15;9.75;;;14.50;99.90;;;;;;5039149;28;20479;-75
2022/04/23 08:25:49;;;;;;;13.05;9.48;;;14.60;99.90;;;;;;5055374;28;20025;-74
2022/04/23 08:31:01;;;;;;;12.20;9.23;;;14.70;99.90;;;;;;5057147;28;20036;-75
2022/04/23 08:33:57;;;;;;;13.50;9.43;;;14.90;99.90;;;;;;5057612;28;20025;-75
2022/04/23 08:36:12;;;;;;;13.23;9.35;;;14.90;99.90;;;;;;5057419;28;20024;-75
2022/04/23 08:38:38;;;;;;;9.68;8.43;;;14.90;99.90;;;;;;5056876;28;20609;-75
2022/04/23 08:41:04;;;;;;;11.20;7.53;;;14.90;99.90;;;;;;5057144;28;20065;-75
2022/04/23 08:43:32;;;;;;;13.52;8.70;;;15.00;99.90;;;;;;5057074;28;20043;-76
2022/04/23 08:46:02;;;;;;;12.52;8.68;;;15.00;99.90;;;;;;5057335;28;20032;-74
2022/04/23 08:48:36;;;;;;;11.30;7.63;;;15.10;99.90;;;;;;5057562;28;20029;-74
2022/04/23 08:51:03;;;;;;;9.25;7.38;;;15.20;99.90;;;;;;5057087;28;20131;-75
2022/04/23 08:53:31;;;;;;;8.60;6.55;;;15.10;99.90;;;;;;5038909;28;20017;-75
2022/04/23 08:55:57;;;;;;;11.32;7.38;;;15.20;99.90;;;;;;5056836;28;20107;-75
2022/04/23 08:58:23;;;;;;;13.48;7.10;;;15.10;99.90;;;;;;5039384;28;20057;-75
2022/04/23 09:00:49;;;;;;;8.25;6.90;;;15.20;99.90;;;;;;5057004;28;20029;-75
2022/04/23 09:03:17;;;;;;;7.80;6.82;;;15.30;99.90;;;;;;5055300;28;20040;-75
2022/04/23 09:05:44;;;;;;;7.75;6.47;;;15.40;99.90;;;;;;5054948;28;20032;-76
2022/04/23 09:08:09;;;;;;;9.65;6.80;;;15.40;99.00;;;;;;5063846;28;20036;-75
2022/04/23 09:10:47;;;;;;;7.55;6.68;;;15.50;98.60;;;;;;5056500;28;20498;-76
2022/04/23 09:13:32;;;;;;;7.00;5.93;;;15.60;97.60;;;;;;5053558;28;20051;-75
2022/04/23 09:24:48;;;;;;;9.00;5.97;;;15.80;95.30;;;;;;5071548;22;20140;-70
2022/04/23 09:27:15;;;;;;;8.27;6.53;;;15.80;94.90;;;;;;5025409;28;20022;-70
2022/04/23 09:29:42;;;;;;;7.95;6.43;;;15.80;95.20;;;;;;5024123;28;20100;-70
2022/04/23 09:32:14;;;;;;;7.47;5.68;;;15.80;95.20;;;;;;5025856;28;20087;-71
2022/04/23 09:34:40;;;;;;;9.00;6.28;;;15.90;94.70;;;;;;5002519;28;20049;-73
2022/04/23 09:37:08;;;;;;;6.53;5.80;;;16.00;94.40;;;;;;5015253;28;20030;-72
2022/04/23 09:39:35;;;;;;;7.90;6.65;;;16.00;94.20;;;;;;4997020;28;20021;-73
2022/04/23 09:42:10;;;;;;;8.57;6.57;;;16.00;93.50;;;;;;5015528;28;20364;-73
2022/04/23 09:44:36;;;;;;;9.65;6.25;;;15.90;93.80;;;;;;5015967;28;20048;-74
2022/04/23 09:47:01;;;;;;;8.32;5.30;;;15.90;93.40;;;;;;4998088;28;20054;-73
2022/04/23 09:49:27;;;;;;;9.10;5.93;;;16.00;93.60;;;;;;5015750;28;20112;-73
2022/04/23 09:55:36;;;;;;;8.43;5.60;;;16.10;92.60;;;;;;5018123;28;20123;-70
2022/04/23 09:58:08;;;;;;;8.70;5.88;;;16.20;91.50;;;;;;5017159;28;20033;-71
2022/04/23 10:00:51;;;;;;;;;;;16.20;91.00;;;;;;5017102;28;20018;-71
2022/04/23 10:03:19;;;;;;;8.27;5.43;;;16.20;91.60;;;;;;5015555;28;19905;-70
2022/04/23 10:05:49;;;;;;;10.32;5.30;;;16.20;90.90;;;;;;5014064;28;20101;-71
2022/04/23 10:08:25;;;;;;;7.68;5.57;;;16.30;90.90;;;;;;5013980;28;20113;-71
2022/04/23 10:10:54;;;;;;;7.25;4.90;;;16.30;90.90;;;;;;5014946;28;20026;-72
2022/04/23 10:13:23;;;;;;;6.38;5.20;;;16.40;90.60;;;;;;5015287;28;20049;-71
2022/04/23 10:15:51;;;;;;;5.97;5.18;;;16.50;90.60;;;;;;5008712;28;20030;-71
2022/04/23 10:18:16;;;;;;;9.10;5.47;;;16.70;90.40;;;;;;5005580;28;20357;-72
2022/04/23 10:20:55;;;;;;;7.60;5.30;;;16.80;89.30;;;;;;5004406;28;20413;-71
2022/04/23 10:23:20;;;;;;;8.95;4.70;;;16.80;88.50;;;;;;4989315;28;20029;-71
2022/04/23 10:26:04;;;;;;;6.97;4.75;;;16.90;87.30;;;;;;5013934;28;20088;-72
2022/04/23 10:28:31;;;;;;;6.40;4.50;;;16.90;85.20;;;;;;5014014;28;20022;-71
2022/04/23 10:31:16;;;;;;;7.10;4.32;;;17.00;84.30;;;;;;4996267;28;20026;-70
2022/04/23 10:33:46;;;;;;;6.30;4.40;;;16.90;83.80;;;;;;5014113;28;20041;-71
2022/04/23 10:36:13;;;;;;;5.70;5.10;;;16.90;83.60;;;;;;5012542;28;20460;-71
2022/04/23 10:38:45;;;;;;;6.07;4.28;;;16.80;81.70;;;;;;5008101;28;20031;-71
2022/04/23 10:41:13;;;;;;;4.90;4.07;;;16.60;82.50;;;;;;4989615;28;20503;-71
2022/04/23 10:43:50;;;;;;;7.07;3.95;;;16.70;82.70;;;;;;5002365;28;20032;-72
2022/04/23 10:46:37;;;;;;;4.22;3.83;;;16.80;81.40;;;;;;5003844;28;20108;-71
2022/04/23 10:49:18;;;;;;;32.88;11.88;;;16.90;80.30;;;;;;5006728;28;20072;-70
2022/04/23 10:51:48;;;;;;;;;;;17.00;78.80;;;;;;5004507;28;20097;-70
2022/04/23 10:54:16;;;;;;;7.10;4.75;;;17.10;79.20;;;;;;5003297;28;19909;-71
2022/04/23 10:56:42;;;;;;;5.20;4.30;;;17.20;79.90;;;;;;5006461;28;20032;-71
2022/04/23 10:59:56;;;;;;;4.68;4.03;;;17.30;79.50;;;;;;5009360;28;20521;-71
2022/04/23 11:02:22;;;;;;;4.43;4.00;;;17.30;77.90;;;;;;4997373;28;20042;-71
2022/04/23 11:13:46;;;;;;;9.48;4.20;;;17.50;76.00;;;;;;5006468;28;20080;-71
2022/04/23 11:16:16;;;;;;;5.53;3.70;;;17.50;75.90;;;;;;5005978;28;20429;-72
2022/04/23 11:19:10;;;;;;;4.70;4.30;;;17.60;75.70;;;;;;5008655;28;20044;-71
2022/04/23 11:21:38;;;;;;;5.47;4.07;;;17.50;75.10;;;;;;5005491;28;20384;-71
2022/04/23 11:24:06;;;;;;;6.35;4.70;;;17.60;75.80;;;;;;5006357;28;20109;-72
2022/04/23 11:26:48;;;;;;;6.38;4.07;;;17.70;74.80;;;;;;5012945;28;20104;-71
2022/04/23 11:29:19;;;;;;;4.45;3.88;;;17.70;73.90;;;;;;5017383;28;20105;-70
2022/04/23 11:31:56;;;;;;;6.80;4.05;;;17.80;74.20;;;;;;5015222;28;20026;-71
2022/04/23 11:34:27;;;;;;;5.90;4.05;;;17.90;74.40;;;;;;5011560;28;20080;-70
2022/04/23 11:36:55;;;;;;;;;;;17.90;74.50;;;;;;5011838;28;20038;-71
2022/04/23 11:39:31;;;;;;;5.75;4.30;;;18.00;74.50;;;;;;5003268;28;19914;-70
2022/04/23 11:42:06;;;;;;;4.65;4.20;;;18.10;73.30;;;;;;5005862;28;20483;-71
2022/04/23 11:44:46;;;;;;;4.38;3.97;;;18.10;72.60;;;;;;5005527;28;20018;-71
2022/04/23 11:47:27;;;;;;;6.18;3.97;;;18.10;72.50;;;;;;5012826;28;20022;-68
2022/04/23 11:49:53;;;;;;;4.88;3.85;;;18.20;72.90;;;;;;4993552;28;20096;-71
2022/04/23 11:52:25;;;;;;;4.38;3.97;;;18.30;72.70;;;;;;5011417;28;20030;-72
2022/04/23 11:54:51;;;;;;;9.98;3.90;;;18.40;71.90;;;;;;4992612;28;20026;-72
2022/04/23 11:57:21;;;;;;;5.68;3.50;;;18.50;70.10;;;;;;5006842;28;20097;-71
2022/04/23 11:59:50;;;;;;;4.82;3.80;;;18.50;69.20;;;;;;4986138;28;20121;-70
2022/04/23 12:02:21;;;;;;;4.60;3.90;;;18.60;68.70;;;;;;5011514;28;20426;-70
2022/04/23 12:04:57;;;;;;;4.68;3.15;;;18.50;68.30;;;;;;5014853;28;20026;-72
2022/04/23 12:07:31;;;;;;;4.65;3.60;;;18.50;68.30;;;;;;5012058;28;20037;-71
2022/04/23 12:10:03;;;;;;;4.22;3.60;;;18.60;68.60;;;;;;5012436;28;20015;-71
2022/04/23 12:15:24;;;;;;;4.32;3.85;;;18.60;67.60;;;;;;4983107;28;20564;-71
2022/04/23 12:17:59;;;;;;;5.20;3.88;;;18.50;67.10;;;;;;4994546;28;20026;-72
2022/04/23 12:20:29;;;;;;;4.43;3.85;;;18.50;67.90;;;;;;4986195;28;20441;-71
2022/04/23 12:23:02;;;;;;;4.73;3.93;;;18.60;68.00;;;;;;5013636;28;20033;-72
2022/04/23 12:25:36;;;;;;;5.75;3.78;;;18.70;68.00;;;;;;4999693;28;20042;-72
2022/04/23 12:43:26;;;;;;;4.22;3.75;;;18.90;65.70;;;;;;5009124;28;20088;-71
2022/04/23 12:46:05;;;;;;;6.00;3.80;;;18.80;66.80;;;;;;5012763;28;20137;-72
2022/04/23 12:48:53;;;;;;;4.85;4.35;;;18.90;67.10;;;;;;5014890;28;20093;-71
2022/04/23 12:51:19;;;;;;;4.75;3.58;;;18.90;66.70;;;;;;5011247;28;20033;-71
2022/04/23 12:53:50;;;;;;;5.97;4.00;;;18.80;67.30;;;;;;5018458;28;20034;-71
2022/04/23 12:56:33;;;;;;;3.95;3.55;;;18.70;66.80;;;;;;5017576;28;20034;-71
2022/04/23 12:58:59;;;;;;;5.80;3.45;;;18.80;67.00;;;;;;5016553;28;20022;-71
2022/04/23 13:01:29;;;;;;;7.30;4.68;;;18.90;67.00;;;;;;5016884;28;20076;-71
2022/04/23 13:04:02;;;;;;;5.80;4.43;;;19.00;67.10;;;;;;5016851;28;20037;-72
2022/04/23 13:09:27;;;;;;;5.05;4.05;;;18.80;66.20;;;;;;5016787;28;20076;-72
2022/04/23 13:11:53;;;;;;;3.80;3.47;;;18.70;66.70;;;;;;5016359;28;20014;-72
2022/04/23 13:14:24;;;;;;;4.70;4.15;;;18.70;67.10;;;;;;4998535;28;20372;-72
2022/04/23 13:16:50;;;;;;;4.43;3.95;;;18.90;66.70;;;;;;5016487;28;20026;-71
2022/04/23 13:19:18;;;;;;;4.40;4.00;;;18.90;66.20;;;;;;5016351;28;20026;-71
2022/04/23 13:21:47;;;;;;;7.75;4.07;;;18.90;66.40;;;;;;5016194;28;20034;-71
2022/04/23 13:24:21;;;;;;;9.73;4.00;;;18.90;66.10;;;;;;4998921;28;20050;-72
2022/04/23 13:26:50;;;;;;;6.13;4.75;;;18.90;65.80;;;;;;4999452;28;20029;-71
2022/04/23 13:29:39;;;;;;;9.55;4.38;;;18.90;65.30;;;;;;5016835;28;20041;-71
2022/04/23 13:32:08;;;;;;;7.10;4.28;;;19.00;65.00;;;;;;5004636;28;20034;-72
2022/04/23 13:34:33;;;;;;;4.68;4.25;;;18.90;65.70;;;;;;4996601;28;20105;-71
2022/04/23 13:37:10;;;;;;;4.82;4.22;;;18.90;66.40;;;;;;5006959;28;20108;-71
2022/04/23 13:39:39;;;;;;;4.72;4.25;;;18.90;66.80;;;;;;5014801;28;20034;-72